createdAt,value
2022-09-10T00:02:13.507Z,21.23
2022-09-10T00:04:40.464Z,21.10
2022-09-10T00:07:07.242Z,21.18
2022-09-10T00:09:34.263Z,20.98
2022-09-10T00:12:01.176Z,21.02
2022-09-10T00:14:27.945Z,21.11
2022-09-10T00:16:55.261Z,20.95
2022-09-10T00:19:22.516Z,21.00
2022-09-10T00:21:50.823Z,21.01
2022-09-10T00:24:17.700Z,20.86
2022-09-10T00:26:45.558Z,20.94
2022-09-10T00:29:15.997Z,20.95
2022-09-10T00:31:43.601Z,20.94
2022-09-10T00:34:12.442Z,20.73
2022-09-10T00:36:41.830Z,20.91
2022-09-10T00:39:15.335Z,20.85
2022-09-10T00:41:45.056Z,20.83
2022-09-10T00:44:39.996Z,20.96
2022-09-10T00:47:22.436Z,20.84
2022-09-10T00:49:55.896Z,20.91
2022-09-10T00:52:23.121Z,20.90
2022-09-10T00:54:50.199Z,20.73
2022-09-10T00:57:24.520Z,20.96
2022-09-10T00:59:56.194Z,20.94
2022-09-10T01:02:23.116Z,20.84
2022-09-10T01:04:50.751Z,20.78
2022-09-10T01:07:19.020Z,20.85
2022-09-10T01:09:46.173Z,20.80
2022-09-10T01:12:22.378Z,20.89
2022-09-10T01:15:30.893Z,20.85
2022-09-10T01:18:22.304Z,20.79
2022-09-10T01:21:08.428Z,20.73
2022-09-10T01:23:53.878Z,20.85
2022-09-10T01:26:36.704Z,20.81
2022-09-10T01:29:06.379Z,20.81
2022-09-10T01:32:07.065Z,20.71
2022-09-10T01:34:42.697Z,20.79
2022-09-10T01:37:18.430Z,20.53
2022-09-10T01:39:47.488Z,20.77
2022-09-10T01:42:15.488Z,20.76
2022-09-10T01:44:48.021Z,20.65
2022-09-10T01:47:35.366Z,20.59
2022-09-10T01:50:39.072Z,20.62
2022-09-10T01:53:51.519Z,20.67
2022-09-10T01:56:48.480Z,20.48
2022-09-10T01:59:34.589Z,20.69
2022-09-10T02:02:10.004Z,20.67
2022-09-10T02:04:38.026Z,20.46
2022-09-10T02:07:07.054Z,20.61
2022-09-10T02:09:34.287Z,20.44
2022-09-10T02:12:02.394Z,20.40
2022-09-10T02:14:29.170Z,20.43
2022-09-10T02:17:01.302Z,20.34
2022-09-10T02:19:28.276Z,20.28
2022-09-10T02:21:57.577Z,20.48
2022-09-10T02:24:24.500Z,20.46
2022-09-10T02:26:51.327Z,20.33
2022-09-10T02:29:19.485Z,20.44
2022-09-10T02:31:47.652Z,20.45
2022-09-10T02:34:16.190Z,20.34
2022-09-10T02:36:43.692Z,20.25
2022-09-10T02:39:10.557Z,20.28
2022-09-10T02:41:41.030Z,20.33
2022-09-10T02:44:08.756Z,20.13
2022-09-10T02:46:35.536Z,20.20
2022-09-10T02:49:03.313Z,20.09
2022-09-10T02:51:30.277Z,20.31
2022-09-10T02:53:57.097Z,20.21
2022-09-10T02:56:23.920Z,20.11
2022-09-10T02:58:51.176Z,20.28
2022-09-10T03:01:21.436Z,20.08
2022-09-10T03:03:55.099Z,20.48
2022-09-10T03:06:23.501Z,19.79
2022-09-10T03:08:51.305Z,20.45
2022-09-10T03:11:18.970Z,20.24
2022-09-10T03:13:46.556Z,20.51
2022-09-10T03:16:13.856Z,20.31
2022-09-10T03:18:41.264Z,20.46
2022-09-10T03:21:18.529Z,20.49
2022-09-10T03:23:48.353Z,20.53
2022-09-10T03:26:17.893Z,20.54
2022-09-10T03:28:45.947Z,20.34
2022-09-10T03:31:13.830Z,20.27
2022-09-10T03:33:41.228Z,20.31
2022-09-10T03:36:09.936Z,20.13
2022-09-10T03:38:36.749Z,20.15
2022-09-10T03:41:03.670Z,19.91
2022-09-10T03:43:30.990Z,20.05
2022-09-10T03:45:57.864Z,19.99
2022-09-10T03:48:24.641Z,19.75
2022-09-10T03:50:51.628Z,19.75
2022-09-10T03:53:19.889Z,19.83
2022-09-10T03:55:48.566Z,19.62
2022-09-10T03:58:16.670Z,19.57
2022-09-10T04:00:44.109Z,19.69
2022-09-10T04:03:14.620Z,19.46
2022-09-10T04:05:45.641Z,19.61
2022-09-10T04:08:13.875Z,19.41
2022-09-10T04:10:42.245Z,19.49
2022-09-10T04:13:09.613Z,19.54
2022-09-10T04:15:37.608Z,19.52
2022-09-10T04:18:06.243Z,19.41
2022-09-10T04:20:34.503Z,19.50
2022-09-10T04:23:01.715Z,19.36
2022-09-10T04:25:28.505Z,19.32
2022-09-10T04:27:55.376Z,19.34
2022-09-10T04:30:22.354Z,19.20
2022-09-10T04:32:50.476Z,19.24
2022-09-10T04:35:17.832Z,19.30
2022-09-10T04:37:44.565Z,19.45
2022-09-10T04:40:11.859Z,19.35
2022-09-10T04:42:39.292Z,19.37
2022-09-10T04:45:07.010Z,19.44
2022-09-10T04:47:34.454Z,19.38
2022-09-10T04:50:01.581Z,19.35
2022-09-10T04:52:29.050Z,19.42
2022-09-10T04:54:56.089Z,19.35
2022-09-10T04:57:23.774Z,19.29
2022-09-10T04:59:50.513Z,19.17
2022-09-10T05:02:17.332Z,19.10
2022-09-10T05:04:44.433Z,19.08
2022-09-10T05:07:11.284Z,19.42
2022-09-10T05:09:38.009Z,19.22
2022-09-10T05:12:05.237Z,19.35
2022-09-10T05:14:32.606Z,19.36
2022-09-10T05:17:00.007Z,19.39
2022-09-10T05:19:27.292Z,19.46
2022-09-10T05:21:54.773Z,19.55
2022-09-10T05:24:21.885Z,19.55
2022-09-10T05:26:48.865Z,19.43
2022-09-10T05:29:16.697Z,19.44
2022-09-10T05:31:43.904Z,19.18
2022-09-10T05:34:11.176Z,19.04
2022-09-10T05:36:38.007Z,19.18
2022-09-10T05:39:05.069Z,19.04
2022-09-10T05:41:32.407Z,19.15
2022-09-10T05:43:59.844Z,18.85
2022-09-10T05:46:28.542Z,19.13
2022-09-10T05:48:55.468Z,19.04
2022-09-10T05:51:22.462Z,18.78
2022-09-10T05:53:50.054Z,18.99
2022-09-10T05:56:17.225Z,18.93
2022-09-10T05:58:45.714Z,19.07
2022-09-10T06:01:12.565Z,18.91
2022-09-10T06:03:40.661Z,18.64
2022-09-10T06:06:07.975Z,19.00
2022-09-10T06:08:35.847Z,18.85
2022-09-10T06:11:06.151Z,18.91
2022-09-10T06:13:34.595Z,18.92
2022-09-10T06:16:01.972Z,18.96
2022-09-10T06:18:30.286Z,19.01
2022-09-10T06:21:28.166Z,18.96
2022-09-10T06:23:55.737Z,18.84
2022-09-10T06:26:22.922Z,19.00
2022-09-10T06:29:30.492Z,19.23
2022-09-10T06:31:57.432Z,19.26
2022-09-10T06:34:24.224Z,19.39
2022-09-10T06:36:51.288Z,19.28
2022-09-10T06:39:18.378Z,19.36
2022-09-10T06:41:52.627Z,19.56
2022-09-10T06:44:19.540Z,19.66
2022-09-10T06:49:33.570Z,19.78
2022-09-10T06:52:01.583Z,19.69
2022-09-10T06:54:28.281Z,19.87
2022-09-10T06:56:55.172Z,19.90
2022-09-10T06:59:21.933Z,19.89
2022-09-10T07:01:49.701Z,20.02
2022-09-10T07:04:16.652Z,20.07
2022-09-10T07:06:43.499Z,20.04
2022-09-10T07:09:10.653Z,19.83
2022-09-10T07:11:41.326Z,20.10
2022-09-10T07:14:12.776Z,20.35
2022-09-10T07:16:41.803Z,20.32
2022-09-10T07:19:13.438Z,20.14
2022-09-10T07:21:40.280Z,20.55
2022-09-10T07:24:07.435Z,20.57
2022-09-10T07:26:34.356Z,20.63
2022-09-10T07:29:01.092Z,20.90
2022-09-10T07:31:30.801Z,21.08
2022-09-10T07:33:58.379Z,21.17
2022-09-10T07:36:28.336Z,21.21
2022-09-10T07:38:57.960Z,21.20
2022-09-10T07:41:28.796Z,21.39
2022-09-10T07:43:55.749Z,21.57
2022-09-10T07:46:25.952Z,21.60
2022-09-10T07:49:00.373Z,22.00
2022-09-10T07:51:30.455Z,22.29
2022-09-10T07:53:58.596Z,22.33
2022-09-10T07:56:25.589Z,22.54
2022-09-10T07:58:54.388Z,22.67
2022-09-10T08:01:21.627Z,22.75
2022-09-10T08:03:48.759Z,22.59
2022-09-10T08:06:16.462Z,23.08
2022-09-10T08:08:43.564Z,23.18
2022-09-10T08:11:17.673Z,23.15
2022-09-10T08:13:50.307Z,23.37
2022-09-10T08:16:23.345Z,23.30
2022-09-10T08:18:51.487Z,23.39
2022-09-10T08:21:20.358Z,23.72
2022-09-10T08:23:52.218Z,23.99
2022-09-10T08:26:18.977Z,24.26
2022-09-10T08:28:45.964Z,24.53
2022-09-10T08:31:13.819Z,24.98
2022-09-10T08:33:40.805Z,25.57
2022-09-10T08:36:10.634Z,26.08
2022-09-10T08:38:40.181Z,26.41
2022-09-10T08:41:18.822Z,26.97
2022-09-10T08:44:04.599Z,27.48
2022-09-10T08:46:48.821Z,27.86
2022-09-10T08:49:38.264Z,28.13
2022-09-10T08:52:15.916Z,28.40
2022-09-10T08:55:06.112Z,28.80
2022-09-10T08:57:35.359Z,29.19
2022-09-10T09:00:02.277Z,29.15
2022-09-10T09:02:48.286Z,29.21
2022-09-10T09:05:22.912Z,29.42
2022-09-10T09:07:51.756Z,29.75
2022-09-10T09:10:20.629Z,30.48
2022-09-10T09:13:02.361Z,30.77
2022-09-10T09:15:48.022Z,31.05
2022-09-10T09:18:20.245Z,31.32
2022-09-10T09:20:51.701Z,31.60
2022-09-10T09:23:28.319Z,31.73
2022-09-10T09:26:04.215Z,31.57
2022-09-10T09:28:46.381Z,31.93
2022-09-10T09:31:17.336Z,32.23
2022-09-10T09:33:46.277Z,32.33
2022-09-10T09:36:18.763Z,32.67
2022-09-10T09:38:49.169Z,32.77
2022-09-10T09:41:23.954Z,32.62
2022-09-10T09:44:01.682Z,32.69
2022-09-10T09:46:28.534Z,32.89
2022-09-10T09:49:00.209Z,33.11
2022-09-10T09:51:35.621Z,33.16
2022-09-10T09:54:56.650Z,33.25
2022-09-10T09:57:15.905Z,33.51
2022-09-10T09:59:43.898Z,33.74
2022-09-10T10:02:12.999Z,34.13
2022-09-10T10:04:54.185Z,34.20
2022-09-10T10:07:32.528Z,34.18
2022-09-10T10:10:07.862Z,34.15
2022-09-10T10:12:49.240Z,33.97
2022-09-10T10:15:42.103Z,34.16
2022-09-10T10:18:29.049Z,34.37
2022-09-10T10:21:18.973Z,34.51
2022-09-10T10:23:46.581Z,34.62
2022-09-10T10:26:21.181Z,34.60
2022-09-10T10:28:50.716Z,34.46
2022-09-10T10:31:18.973Z,34.39
2022-09-10T10:34:05.329Z,34.39
2022-09-10T10:36:54.449Z,34.07
2022-09-10T10:39:39.666Z,34.00
2022-09-10T10:42:15.848Z,33.57
2022-09-10T10:45:13.477Z,33.57
2022-09-10T10:48:10.156Z,33.60
2022-09-10T10:50:55.930Z,33.45
2022-09-10T10:53:55.918Z,33.35
2022-09-10T10:56:32.093Z,33.49
2022-09-10T10:59:17.582Z,33.60
2022-09-10T11:01:54.131Z,33.70
2022-09-10T11:04:42.944Z,33.39
2022-09-10T11:07:31.958Z,32.63
2022-09-10T11:10:01.765Z,32.56
2022-09-10T11:12:35.072Z,32.80
2022-09-10T11:15:22.093Z,33.30
2022-09-10T11:18:24.322Z,33.69
2022-09-10T11:21:00.266Z,33.72
2022-09-10T11:23:45.519Z,34.09
2022-09-10T11:26:22.054Z,34.15
2022-09-10T11:29:04.136Z,34.23
2022-09-10T11:31:34.011Z,34.25
2022-09-10T11:34:11.211Z,34.48
2022-09-10T11:36:56.259Z,34.83
2022-09-10T11:39:29.181Z,35.24
2022-09-10T11:41:59.622Z,35.59
2022-09-10T11:44:46.128Z,35.88
2022-09-10T11:47:24.127Z,36.24
2022-09-10T11:50:11.395Z,36.58
2022-09-10T11:52:38.537Z,36.58
2022-09-10T11:55:08.624Z,37.00
2022-09-10T11:57:48.587Z,37.05
2022-09-10T12:00:17.769Z,37.34
2022-09-10T12:03:18.482Z,38.18
2022-09-10T12:05:51.194Z,39.00
2022-09-10T12:08:49.869Z,39.63
2022-09-10T12:11:35.595Z,39.36
2022-09-10T12:14:18.871Z,39.47
2022-09-10T12:16:49.330Z,40.48
2022-09-10T12:19:26.805Z,41.34
2022-09-10T12:22:02.206Z,42.01
2022-09-10T12:24:32.692Z,41.86
2022-09-10T12:27:05.339Z,42.37
2022-09-10T12:32:38.602Z,43.37
2022-09-10T12:35:31.440Z,43.46
2022-09-10T12:38:35.956Z,43.71
2022-09-10T12:41:04.232Z,44.16
2022-09-10T12:43:43.606Z,45.41
2022-09-10T12:46:10.609Z,44.29
2022-09-10T12:48:41.823Z,44.31
2022-09-10T12:51:21.157Z,44.86
2022-09-10T12:54:27.161Z,45.16
2022-09-10T12:56:53.958Z,45.23
2022-09-10T12:59:51.702Z,45.72
2022-09-10T13:02:24.882Z,45.84
2022-09-10T13:04:58.801Z,45.94
2022-09-10T13:07:34.029Z,45.95
2022-09-10T13:10:08.056Z,44.42
2022-09-10T13:12:36.647Z,41.00
2022-09-10T13:15:04.991Z,38.62
2022-09-10T13:17:47.078Z,36.64
2022-09-10T13:20:23.644Z,35.24
2022-09-10T13:22:56.656Z,34.20
2022-09-10T13:25:36.789Z,33.10
2022-09-10T13:28:29.639Z,32.11
2022-09-10T13:30:59.414Z,31.32
2022-09-10T13:33:30.787Z,30.64
2022-09-10T13:36:30.818Z,30.20
2022-09-10T13:39:23.902Z,29.89
2022-09-10T13:42:15.510Z,29.43
2022-09-10T13:44:43.200Z,29.22
2022-09-10T13:47:15.198Z,28.96
2022-09-10T13:50:00.958Z,28.80
2022-09-10T13:52:31.053Z,28.46
2022-09-10T13:55:02.863Z,28.38
2022-09-10T13:57:45.327Z,28.05
2022-09-10T14:00:18.317Z,27.86
2022-09-10T14:02:47.697Z,27.71
2022-09-10T14:05:29.002Z,27.62
2022-09-10T14:08:10.855Z,27.51
2022-09-10T14:11:00.078Z,27.52
2022-09-10T14:13:33.852Z,27.35
2022-09-10T14:16:03.769Z,27.26
2022-09-10T14:18:39.595Z,27.10
2022-09-10T14:21:06.900Z,27.08
2022-09-10T14:23:35.912Z,27.16
2022-09-10T14:26:23.737Z,27.02
2022-09-10T14:28:57.734Z,27.06
2022-09-10T14:31:27.422Z,26.98
2022-09-10T14:33:56.079Z,26.86
2022-09-10T14:36:29.481Z,26.91
2022-09-10T14:39:19.974Z,26.91
2022-09-10T14:41:47.723Z,26.85
2022-09-10T14:44:23.943Z,26.81
2022-09-10T14:46:57.748Z,26.78
2022-09-10T14:49:36.181Z,26.70
2022-09-10T14:52:03.857Z,26.72
2022-09-10T14:54:32.886Z,26.69
2022-09-10T14:57:13.382Z,26.63
2022-09-10T14:59:42.755Z,26.57
2022-09-10T15:02:28.785Z,26.63
2022-09-10T15:04:56.412Z,26.56
2022-09-10T15:07:23.860Z,26.59
2022-09-10T15:09:53.793Z,26.56
2022-09-10T15:12:30.226Z,26.49
2022-09-10T15:15:00.286Z,26.41
2022-09-10T15:17:27.268Z,26.50
2022-09-10T15:19:56.075Z,26.57
2022-09-10T15:22:28.145Z,26.41
2022-09-10T15:25:11.453Z,26.33
2022-09-10T15:27:38.736Z,26.41
2022-09-10T15:30:06.328Z,26.30
2022-09-10T15:32:33.169Z,26.35
2022-09-10T15:35:00.094Z,26.27
2022-09-10T15:37:27.270Z,26.19
2022-09-10T15:39:54.775Z,26.22
2022-09-10T15:42:21.806Z,26.14
2022-09-10T15:44:48.511Z,26.26
2022-09-10T15:47:15.257Z,26.24
2022-09-10T15:49:42.085Z,26.18
2022-09-10T15:52:10.100Z,26.20
2022-09-10T15:54:36.888Z,26.17
2022-09-10T15:57:03.869Z,26.19
2022-09-10T15:59:30.660Z,26.16
2022-09-10T16:01:57.528Z,26.10
2022-09-10T16:04:25.280Z,26.09
2022-09-10T16:06:52.186Z,26.03
2022-09-10T16:09:19.021Z,26.07
2022-09-10T16:11:48.557Z,26.04
2022-09-10T16:14:16.835Z,25.97
2022-09-10T16:16:43.639Z,26.00
2022-09-10T16:19:13.204Z,26.00
2022-09-10T16:21:39.837Z,25.96
2022-09-10T16:24:08.163Z,26.04
2022-09-10T16:26:37.816Z,25.92
2022-09-10T16:29:26.099Z,26.00
2022-09-10T16:31:53.781Z,25.97
2022-09-10T16:34:22.299Z,26.10
2022-09-10T16:36:49.465Z,26.00
2022-09-10T16:39:17.116Z,26.08
2022-09-10T16:41:48.414Z,25.82
2022-09-10T16:44:17.825Z,25.70
2022-09-10T16:46:46.505Z,25.92
2022-09-10T16:49:14.046Z,25.97
2022-09-10T16:51:46.305Z,25.72
2022-09-10T16:54:14.263Z,25.89
2022-09-10T16:56:43.504Z,25.86
2022-09-10T16:59:15.269Z,25.61
2022-09-10T17:01:44.253Z,25.76
2022-09-10T17:04:32.650Z,25.73
2022-09-10T17:06:59.460Z,25.72
2022-09-10T17:09:26.861Z,25.58
2022-09-10T17:11:54.053Z,25.58
2022-09-10T17:14:20.807Z,25.67
2022-09-10T17:16:48.806Z,25.46
2022-09-10T17:19:21.489Z,25.59
2022-09-10T17:21:53.250Z,25.52
2022-09-10T17:24:22.953Z,25.48
2022-09-10T17:26:50.641Z,25.23
2022-09-10T17:29:20.617Z,25.20
2022-09-10T17:31:48.322Z,25.22
2022-09-10T17:34:16.503Z,25.09
2022-09-10T17:36:46.105Z,25.12
2022-09-10T17:39:13.305Z,24.95
2022-09-10T17:41:40.543Z,25.05
2022-09-10T17:44:08.341Z,24.82
2022-09-10T17:46:36.463Z,24.90
2022-09-10T17:49:04.448Z,24.80
2022-09-10T17:51:34.147Z,24.79
2022-09-10T17:54:02.777Z,24.71
2022-09-10T17:56:30.274Z,24.68
2022-09-10T17:58:59.361Z,24.55
2022-09-10T18:01:30.605Z,24.70
2022-09-10T18:03:57.729Z,24.50
2022-09-10T18:06:25.403Z,24.47
2022-09-10T18:08:53.027Z,24.36
2022-09-10T18:11:23.453Z,24.33
2022-09-10T18:13:52.556Z,24.27
2022-09-10T18:16:22.734Z,24.38
2022-09-10T18:18:55.884Z,24.22
2022-09-10T18:21:27.355Z,24.28
2022-09-10T18:24:05.374Z,24.18
2022-09-10T18:26:34.957Z,24.02
2022-09-10T18:29:11.667Z,23.93
2022-09-10T18:31:42.005Z,24.00
2022-09-10T18:34:11.254Z,23.96
2022-09-10T18:36:38.135Z,23.75
2022-09-10T18:39:07.182Z,23.81
2022-09-10T18:41:38.327Z,23.53
2022-09-10T18:44:08.397Z,23.72
2022-09-10T18:46:36.347Z,23.83
2022-09-10T18:49:04.800Z,23.84
2022-09-10T18:51:31.809Z,23.66
2022-09-10T18:54:01.289Z,23.55
2022-09-10T18:56:32.412Z,23.24
2022-09-10T18:59:05.045Z,23.32
2022-09-10T19:01:31.982Z,23.32
2022-09-10T19:03:59.255Z,23.22
2022-09-10T19:06:30.072Z,23.32
2022-09-10T19:09:04.892Z,23.18
2022-09-10T19:11:42.811Z,23.16
2022-09-10T19:14:39.310Z,22.92
2022-09-10T19:17:06.190Z,22.94
2022-09-10T19:19:35.340Z,23.07
2022-09-10T19:22:06.379Z,23.00
2022-09-10T19:27:21.321Z,22.60
2022-09-10T19:29:49.887Z,22.69
2022-09-10T19:32:17.251Z,22.82
2022-09-10T19:34:44.610Z,22.85
2022-09-10T19:37:11.397Z,22.80
2022-09-10T19:39:38.525Z,22.84
2022-09-10T19:42:07.020Z,22.81
2022-09-10T19:44:33.859Z,22.84
2022-09-10T19:47:00.784Z,22.81
2022-09-10T19:49:27.833Z,22.75
2022-09-10T19:51:54.652Z,22.62
2022-09-10T19:57:43.114Z,22.61
2022-09-10T20:00:24.787Z,22.52
2022-09-10T20:02:57.714Z,22.51
2022-09-10T20:05:25.446Z,22.47
2022-09-10T20:07:52.329Z,22.75
2022-09-10T20:10:19.748Z,22.58
2022-09-10T20:12:46.602Z,22.68
2022-09-10T20:15:13.577Z,22.04
2022-09-10T20:17:40.555Z,22.22
2022-09-10T20:20:07.724Z,22.41
2022-09-10T20:22:38.211Z,22.13
2022-09-10T20:25:06.224Z,22.04
2022-09-10T20:27:33.353Z,21.88
2022-09-10T20:30:00.886Z,22.37
2022-09-10T20:32:27.968Z,22.27
2022-09-10T20:34:56.516Z,21.65
2022-09-10T20:37:25.002Z,21.76
2022-09-10T20:39:53.441Z,22.10
2022-09-10T20:42:20.328Z,22.06
2022-09-10T20:44:47.170Z,22.13
2022-09-10T20:47:14.268Z,22.16
2022-09-10T20:49:41.055Z,21.92
2022-09-10T20:52:07.757Z,22.12
2022-09-10T20:54:34.881Z,22.34
2022-09-10T20:57:02.359Z,21.73
2022-09-10T20:59:30.648Z,22.07
2022-09-10T21:01:57.825Z,21.68
2022-09-10T21:04:24.710Z,21.68
2022-09-10T21:06:51.453Z,22.12
2022-09-10T21:09:18.356Z,22.09
2022-09-10T21:11:45.310Z,22.08
2022-09-10T21:14:12.394Z,22.07
2022-09-10T21:16:41.642Z,22.02
2022-09-10T21:19:14.382Z,22.09
2022-09-10T21:21:45.077Z,21.89
2022-09-10T21:24:29.815Z,22.06
2022-09-10T21:26:57.014Z,22.06
2022-09-10T21:29:23.913Z,22.14
2022-09-10T21:31:50.872Z,22.20
2022-09-10T21:34:18.105Z,21.90
2022-09-10T21:36:45.414Z,22.19
2022-09-10T21:39:17.576Z,21.81
2022-09-10T21:41:47.451Z,22.16
2022-09-10T21:44:15.893Z,21.98
2022-09-10T21:46:44.055Z,22.06
2022-09-10T21:49:11.554Z,22.08
2022-09-10T21:51:38.665Z,21.94
2022-09-10T21:54:05.851Z,21.91
2022-09-10T21:56:33.657Z,21.94
2022-09-10T21:59:01.334Z,21.80
2022-09-10T22:01:30.929Z,21.90
2022-09-10T22:04:01.271Z,21.81
2022-09-10T22:06:30.938Z,21.86
2022-09-10T22:09:00.380Z,21.88
2022-09-10T22:11:39.524Z,21.71
2022-09-10T22:14:12.142Z,21.77
2022-09-10T22:16:39.180Z,21.83
2022-09-10T22:19:11.967Z,21.81
2022-09-10T22:21:38.805Z,21.68
2022-09-10T22:24:06.564Z,21.76
2022-09-10T22:26:34.256Z,21.75
2022-09-10T22:29:02.699Z,21.67
2022-09-10T22:31:34.734Z,21.56
2022-09-10T22:34:04.801Z,21.76
2022-09-10T22:36:34.163Z,21.79
2022-09-10T22:39:03.590Z,21.80
2022-09-10T22:41:34.188Z,21.81
2022-09-10T22:44:02.306Z,21.69
2022-09-10T22:46:30.238Z,21.70
2022-09-10T22:48:57.633Z,21.72
2022-09-10T22:51:27.996Z,21.70
2022-09-10T22:53:56.084Z,21.75
2022-09-10T22:56:28.572Z,21.78
2022-09-10T22:58:57.373Z,21.46
2022-09-10T23:01:27.844Z,21.59
2022-09-10T23:03:59.441Z,21.71
2022-09-10T23:06:28.402Z,21.56
2022-09-10T23:08:57.670Z,21.68
2022-09-10T23:11:28.213Z,21.66
2022-09-10T23:13:57.656Z,21.55
2022-09-10T23:16:48.035Z,21.58
2022-09-10T23:19:17.631Z,21.42
2022-09-10T23:21:46.801Z,21.49
2022-09-10T23:24:17.196Z,21.57
2022-09-10T23:26:45.132Z,21.51
2022-09-10T23:29:12.853Z,21.58
2022-09-10T23:31:41.220Z,21.56
2022-09-10T23:34:16.826Z,21.39
2022-09-10T23:36:45.441Z,21.44
2022-09-10T23:39:20.358Z,21.49
2022-09-10T23:41:48.672Z,21.49
2022-09-10T23:44:15.780Z,21.35
2022-09-10T23:46:42.770Z,21.27
2022-09-10T23:49:09.874Z,21.30
2022-09-10T23:51:37.204Z,21.44
2022-09-10T23:54:04.538Z,21.40
2022-09-10T23:56:32.183Z,21.22
2022-09-10T23:59:03.667Z,21.27
